sensor_id;sensor_type;location;lat;lon;timestamp;P1;durP1;ratioP1;P2;durP2;ratioP2
45522;SDS011;31254;51.680;5.394;2023-08-08T00:00:40;4.68;;;2.20;;
45522;SDS011;31254;51.680;5.394;2023-08-08T00:03:10;6.18;;;1.90;;
45522;SDS011;31254;51.680;5.394;2023-08-08T00:05:37;4.00;;;2.10;;
45522;SDS011;31254;51.680;5.394;2023-08-08T00:08:04;6.57;;;2.20;;
45522;SDS011;31254;51.680;5.394;2023-08-08T00:10:31;6.20;;;2.35;;
45522;SDS011;31254;51.680;5.394;2023-08-08T00:13:00;4.75;;;2.10;;
45522;SDS011;31254;51.680;5.394;2023-08-08T00:15:30;4.75;;;2.42;;
45522;SDS011;31254;51.680;5.394;2023-08-08T00:17:58;6.95;;;2.30;;
45522;SDS011;31254;51.680;5.394;2023-08-08T00:20:27;4.97;;;2.20;;
45522;SDS011;31254;51.680;5.394;2023-08-08T00:22:54;3.83;;;2.13;;
45522;SDS011;31254;51.680;5.394;2023-08-08T00:25:21;6.25;;;2.05;;
45522;SDS011;31254;51.680;5.394;2023-08-08T00:27:49;4.55;;;2.15;;
45522;SDS011;31254;51.680;5.394;2023-08-08T00:30:17;4.38;;;2.15;;
45522;SDS011;31254;51.680;5.394;2023-08-08T00:32:44;8.63;;;2.33;;
45522;SDS011;31254;51.680;5.394;2023-08-08T00:35:10;5.78;;;2.30;;
45522;SDS011;31254;51.680;5.394;2023-08-08T00:37:38;5.57;;;2.35;;
45522;SDS011;31254;51.680;5.394;2023-08-08T00:40:05;7.50;;;2.05;;
45522;SDS011;31254;51.680;5.394;2023-08-08T00:42:33;5.60;;;1.95;;
45522;SDS011;31254;51.680;5.394;2023-08-08T00:44:59;7.20;;;2.20;;
45522;SDS011;31254;51.680;5.394;2023-08-08T00:47:33;3.63;;;1.85;;
45522;SDS011;31254;51.680;5.394;2023-08-08T00:50:01;6.78;;;2.20;;
45522;SDS011;31254;51.680;5.394;2023-08-08T00:52:32;4.55;;;1.90;;
45522;SDS011;31254;51.680;5.394;2023-08-08T00:55:00;8.20;;;2.17;;
45522;SDS011;31254;51.680;5.394;2023-08-08T00:57:28;4.38;;;1.70;;
45522;SDS011;31254;51.680;5.394;2023-08-08T00:59:55;5.18;;;1.70;;
45522;SDS011;31254;51.680;5.394;2023-08-08T01:02:22;6.72;;;2.50;;
45522;SDS011;31254;51.680;5.394;2023-08-08T01:04:49;7.22;;;2.00;;
45522;SDS011;31254;51.680;5.394;2023-08-08T01:07:25;5.40;;;2.10;;
45522;SDS011;31254;51.680;5.394;2023-08-08T01:12:44;6.78;;;2.15;;
45522;SDS011;31254;51.680;5.394;2023-08-08T01:15:15;5.38;;;2.25;;
45522;SDS011;31254;51.680;5.394;2023-08-08T01:17:43;7.18;;;2.28;;
45522;SDS011;31254;51.680;5.394;2023-08-08T01:20:12;5.05;;;1.80;;
45522;SDS011;31254;51.680;5.394;2023-08-08T01:22:56;6.20;;;2.35;;
45522;SDS011;31254;51.680;5.394;2023-08-08T01:25:36;4.18;;;1.90;;
45522;SDS011;31254;51.680;5.394;2023-08-08T01:28:06;6.20;;;2.33;;
45522;SDS011;31254;51.680;5.394;2023-08-08T01:30:37;5.38;;;2.30;;
45522;SDS011;31254;51.680;5.394;2023-08-08T01:33:04;4.65;;;1.98;;
45522;SDS011;31254;51.680;5.394;2023-08-08T01:35:34;6.35;;;2.08;;
45522;SDS011;31254;51.680;5.394;2023-08-08T01:41:08;6.45;;;2.10;;
45522;SDS011;31254;51.680;5.394;2023-08-08T01:43:37;5.60;;;2.17;;
45522;SDS011;31254;51.680;5.394;2023-08-08T01:46:05;4.65;;;1.90;;
45522;SDS011;31254;51.680;5.394;2023-08-08T01:48:34;7.07;;;2.15;;
45522;SDS011;31254;51.680;5.394;2023-08-08T01:51:00;8.23;;;2.15;;
45522;SDS011;31254;51.680;5.394;2023-08-08T01:53:27;5.85;;;1.98;;
45522;SDS011;31254;51.680;5.394;2023-08-08T01:55:55;6.63;;;2.03;;
45522;SDS011;31254;51.680;5.394;2023-08-08T01:58:22;10.13;;;2.40;;
45522;SDS011;31254;51.680;5.394;2023-08-08T02:00:48;5.90;;;2.10;;
45522;SDS011;31254;51.680;5.394;2023-08-08T02:03:15;5.55;;;2.05;;
45522;SDS011;31254;51.680;5.394;2023-08-08T02:05:42;3.25;;;1.60;;
45522;SDS011;31254;51.680;5.394;2023-08-08T02:08:09;5.57;;;2.38;;
45522;SDS011;31254;51.680;5.394;2023-08-08T02:10:36;4.78;;;2.00;;
45522;SDS011;31254;51.680;5.394;2023-08-08T02:13:05;4.28;;;2.05;;
45522;SDS011;31254;51.680;5.394;2023-08-08T02:15:32;6.47;;;2.28;;
45522;SDS011;31254;51.680;5.394;2023-08-08T02:18:01;6.93;;;2.20;;
45522;SDS011;31254;51.680;5.394;2023-08-08T02:20:30;6.78;;;2.08;;
45522;SDS011;31254;51.680;5.394;2023-08-08T02:22:59;7.57;;;2.40;;
45522;SDS011;31254;51.680;5.394;2023-08-08T02:25:25;4.05;;;2.05;;
45522;SDS011;31254;51.680;5.394;2023-08-08T02:27:52;6.45;;;2.42;;
45522;SDS011;31254;51.680;5.394;2023-08-08T02:30:21;5.47;;;2.58;;
45522;SDS011;31254;51.680;5.394;2023-08-08T02:32:48;4.35;;;2.03;;
45522;SDS011;31254;51.680;5.394;2023-08-08T02:35:15;6.88;;;2.47;;
45522;SDS011;31254;51.680;5.394;2023-08-08T02:37:42;11.07;;;3.50;;
45522;SDS011;31254;51.680;5.394;2023-08-08T02:40:09;4.90;;;2.38;;
45522;SDS011;31254;51.680;5.394;2023-08-08T02:42:36;5.70;;;2.47;;
45522;SDS011;31254;51.680;5.394;2023-08-08T02:45:03;6.55;;;2.35;;
45522;SDS011;31254;51.680;5.394;2023-08-08T02:47:30;4.82;;;2.17;;
45522;SDS011;31254;51.680;5.394;2023-08-08T02:49:57;5.45;;;2.33;;
45522;SDS011;31254;51.680;5.394;2023-08-08T02:52:26;5.15;;;2.58;;
45522;SDS011;31254;51.680;5.394;2023-08-08T02:54:53;6.38;;;2.65;;
45522;SDS011;31254;51.680;5.394;2023-08-08T02:57:22;4.43;;;2.05;;
45522;SDS011;31254;51.680;5.394;2023-08-08T02:59:49;10.50;;;2.65;;
45522;SDS011;31254;51.680;5.394;2023-08-08T03:02:16;8.63;;;2.25;;
45522;SDS011;31254;51.680;5.394;2023-08-08T03:04:45;7.70;;;2.42;;
45522;SDS011;31254;51.680;5.394;2023-08-08T03:07:14;5.90;;;2.25;;
45522;SDS011;31254;51.680;5.394;2023-08-08T03:09:41;4.70;;;2.55;;
45522;SDS011;31254;51.680;5.394;2023-08-08T03:12:10;5.93;;;2.63;;
45522;SDS011;31254;51.680;5.394;2023-08-08T03:14:37;4.82;;;2.33;;
45522;SDS011;31254;51.680;5.394;2023-08-08T03:17:04;6.10;;;2.60;;
45522;SDS011;31254;51.680;5.394;2023-08-08T03:19:31;5.80;;;2.10;;
45522;SDS011;31254;51.680;5.394;2023-08-08T03:21:58;5.28;;;2.53;;
45522;SDS011;31254;51.680;5.394;2023-08-08T03:24:25;6.20;;;2.75;;
45522;SDS011;31254;51.680;5.394;2023-08-08T03:26:52;9.05;;;3.08;;
45522;SDS011;31254;51.680;5.394;2023-08-08T03:29:19;6.82;;;2.83;;
45522;SDS011;31254;51.680;5.394;2023-08-08T03:31:46;5.18;;;2.58;;
45522;SDS011;31254;51.680;5.394;2023-08-08T03:34:13;7.53;;;3.17;;
45522;SDS011;31254;51.680;5.394;2023-08-08T03:36:42;6.15;;;2.85;;
45522;SDS011;31254;51.680;5.394;2023-08-08T03:39:11;10.75;;;3.15;;
45522;SDS011;31254;51.680;5.394;2023-08-08T03:41:38;8.10;;;3.30;;
45522;SDS011;31254;51.680;5.394;2023-08-08T03:44:05;7.95;;;2.70;;
45522;SDS011;31254;51.680;5.394;2023-08-08T03:46:32;5.78;;;3.10;;
45522;SDS011;31254;51.680;5.394;2023-08-08T03:49:00;7.97;;;2.85;;
45522;SDS011;31254;51.680;5.394;2023-08-08T03:51:27;5.68;;;3.20;;
45522;SDS011;31254;51.680;5.394;2023-08-08T03:53:54;8.85;;;3.28;;
45522;SDS011;31254;51.680;5.394;2023-08-08T03:56:21;8.05;;;3.58;;
45522;SDS011;31254;51.680;5.394;2023-08-08T03:58:47;7.25;;;3.10;;
45522;SDS011;31254;51.680;5.394;2023-08-08T04:01:14;6.55;;;2.83;;
45522;SDS011;31254;51.680;5.394;2023-08-08T04:03:41;9.63;;;3.30;;
45522;SDS011;31254;51.680;5.394;2023-08-08T04:06:08;10.20;;;3.85;;
45522;SDS011;31254;51.680;5.394;2023-08-08T04:08:37;7.38;;;3.08;;
45522;SDS011;31254;51.680;5.394;2023-08-08T04:11:04;9.43;;;3.40;;
45522;SDS011;31254;51.680;5.394;2023-08-08T04:13:34;9.27;;;3.72;;
45522;SDS011;31254;51.680;5.394;2023-08-08T04:16:01;9.02;;;3.38;;
45522;SDS011;31254;51.680;5.394;2023-08-08T04:18:28;8.60;;;3.58;;
45522;SDS011;31254;51.680;5.394;2023-08-08T04:20:58;8.05;;;3.40;;
45522;SDS011;31254;51.680;5.394;2023-08-08T04:23:24;11.40;;;4.05;;
45522;SDS011;31254;51.680;5.394;2023-08-08T04:25:52;8.27;;;3.92;;
45522;SDS011;31254;51.680;5.394;2023-08-08T04:28:19;6.90;;;3.40;;
45522;SDS011;31254;51.680;5.394;2023-08-08T04:30:46;8.48;;;3.90;;
45522;SDS011;31254;51.680;5.394;2023-08-08T04:33:13;9.00;;;3.97;;
45522;SDS011;31254;51.680;5.394;2023-08-08T04:35:39;12.55;;;3.75;;
45522;SDS011;31254;51.680;5.394;2023-08-08T04:38:08;9.57;;;3.72;;
45522;SDS011;31254;51.680;5.394;2023-08-08T04:40:35;12.38;;;4.40;;
45522;SDS011;31254;51.680;5.394;2023-08-08T04:43:04;8.23;;;3.60;;
45522;SDS011;31254;51.680;5.394;2023-08-08T04:45:31;9.10;;;3.38;;
45522;SDS011;31254;51.680;5.394;2023-08-08T04:48:01;10.85;;;4.22;;
45522;SDS011;31254;51.680;5.394;2023-08-08T04:50:28;6.78;;;3.72;;
45522;SDS011;31254;51.680;5.394;2023-08-08T04:52:57;7.93;;;3.95;;
45522;SDS011;31254;51.680;5.394;2023-08-08T04:55:24;15.13;;;4.45;;
45522;SDS011;31254;51.680;5.394;2023-08-08T04:57:51;7.30;;;3.42;;
45522;SDS011;31254;51.680;5.394;2023-08-08T05:00:20;9.38;;;3.88;;
45522;SDS011;31254;51.680;5.394;2023-08-08T05:02:46;11.32;;;4.43;;
45522;SDS011;31254;51.680;5.394;2023-08-08T05:05:16;9.57;;;4.30;;
45522;SDS011;31254;51.680;5.394;2023-08-08T05:07:45;11.00;;;4.40;;
45522;SDS011;31254;51.680;5.394;2023-08-08T05:10:14;8.25;;;3.55;;
45522;SDS011;31254;51.680;5.394;2023-08-08T05:12:43;10.05;;;3.70;;
45522;SDS011;31254;51.680;5.394;2023-08-08T05:15:10;11.82;;;4.60;;
45522;SDS011;31254;51.680;5.394;2023-08-08T05:17:37;10.30;;;4.15;;
45522;SDS011;31254;51.680;5.394;2023-08-08T05:20:06;14.00;;;4.63;;
45522;SDS011;31254;51.680;5.394;2023-08-08T05:22:36;8.68;;;4.03;;
45522;SDS011;31254;51.680;5.394;2023-08-08T05:25:05;8.45;;;4.00;;
45522;SDS011;31254;51.680;5.394;2023-08-08T05:27:32;7.38;;;3.35;;
45522;SDS011;31254;51.680;5.394;2023-08-08T05:29:59;10.30;;;3.92;;
45522;SDS011;31254;51.680;5.394;2023-08-08T05:32:26;11.30;;;4.32;;
45522;SDS011;31254;51.680;5.394;2023-08-08T05:34:52;12.38;;;4.30;;
45522;SDS011;31254;51.680;5.394;2023-08-08T05:37:19;6.57;;;3.63;;
45522;SDS011;31254;51.680;5.394;2023-08-08T05:39:50;10.18;;;4.10;;
45522;SDS011;31254;51.680;5.394;2023-08-08T05:42:18;9.48;;;4.10;;
45522;SDS011;31254;51.680;5.394;2023-08-08T05:44:45;10.93;;;4.07;;
45522;SDS011;31254;51.680;5.394;2023-08-08T05:47:12;9.45;;;4.40;;
45522;SDS011;31254;51.680;5.394;2023-08-08T05:49:39;11.80;;;4.05;;
45522;SDS011;31254;51.680;5.394;2023-08-08T05:52:09;12.43;;;4.90;;
45522;SDS011;31254;51.680;5.394;2023-08-08T05:54:37;11.45;;;3.75;;
45522;SDS011;31254;51.680;5.394;2023-08-08T05:57:04;15.43;;;4.30;;
45522;SDS011;31254;51.680;5.394;2023-08-08T05:59:31;13.88;;;4.20;;
45522;SDS011;31254;51.680;5.394;2023-08-08T06:01:57;10.52;;;3.88;;
45522;SDS011;31254;51.680;5.394;2023-08-08T06:04:26;11.20;;;3.97;;
45522;SDS011;31254;51.680;5.394;2023-08-08T06:06:52;13.60;;;5.30;;
45522;SDS011;31254;51.680;5.394;2023-08-08T06:09:21;14.30;;;5.43;;
45522;SDS011;31254;51.680;5.394;2023-08-08T06:11:48;13.75;;;5.40;;
45522;SDS011;31254;51.680;5.394;2023-08-08T06:14:17;12.95;;;5.40;;
45522;SDS011;31254;51.680;5.394;2023-08-08T06:16:49;12.65;;;5.07;;
45522;SDS011;31254;51.680;5.394;2023-08-08T06:19:16;10.75;;;4.95;;
45522;SDS011;31254;51.680;5.394;2023-08-08T06:21:43;15.48;;;5.30;;
45522;SDS011;31254;51.680;5.394;2023-08-08T06:24:09;12.18;;;5.38;;
45522;SDS011;31254;51.680;5.394;2023-08-08T06:26:36;13.80;;;5.25;;
45522;SDS011;31254;51.680;5.394;2023-08-08T06:29:03;13.30;;;4.57;;
45522;SDS011;31254;51.680;5.394;2023-08-08T06:31:30;12.15;;;4.60;;
45522;SDS011;31254;51.680;5.394;2023-08-08T06:34:01;13.88;;;5.05;;
45522;SDS011;31254;51.680;5.394;2023-08-08T06:36:30;13.07;;;4.78;;
45522;SDS011;31254;51.680;5.394;2023-08-08T06:38:57;11.27;;;5.25;;
45522;SDS011;31254;51.680;5.394;2023-08-08T06:41:24;16.60;;;4.70;;
45522;SDS011;31254;51.680;5.394;2023-08-08T06:43:50;14.30;;;4.80;;
45522;SDS011;31254;51.680;5.394;2023-08-08T06:46:17;13.07;;;4.55;;
45522;SDS011;31254;51.680;5.394;2023-08-08T06:48:46;10.35;;;4.32;;
45522;SDS011;31254;51.680;5.394;2023-08-08T06:51:14;10.98;;;4.07;;
45522;SDS011;31254;51.680;5.394;2023-08-08T06:53:41;10.48;;;4.20;;
45522;SDS011;31254;51.680;5.394;2023-08-08T06:56:10;14.38;;;3.75;;
45522;SDS011;31254;51.680;5.394;2023-08-08T06:58:37;10.50;;;3.60;;
45522;SDS011;31254;51.680;5.394;2023-08-08T07:01:04;8.63;;;3.67;;
45522;SDS011;31254;51.680;5.394;2023-08-08T07:03:30;13.02;;;3.75;;
45522;SDS011;31254;51.680;5.394;2023-08-08T07:05:57;10.65;;;3.40;;
45522;SDS011;31254;51.680;5.394;2023-08-08T07:08:26;9.18;;;4.25;;
45522;SDS011;31254;51.680;5.394;2023-08-08T07:10:54;9.57;;;3.60;;
45522;SDS011;31254;51.680;5.394;2023-08-08T07:13:23;8.60;;;3.63;;
45522;SDS011;31254;51.680;5.394;2023-08-08T07:15:52;9.30;;;3.75;;
45522;SDS011;31254;51.680;5.394;2023-08-08T07:18:22;12.90;;;3.83;;
45522;SDS011;31254;51.680;5.394;2023-08-08T07:20:53;7.93;;;3.10;;
45522;SDS011;31254;51.680;5.394;2023-08-08T07:23:22;10.73;;;4.07;;
45522;SDS011;31254;51.680;5.394;2023-08-08T07:25:51;11.02;;;3.30;;
45522;SDS011;31254;51.680;5.394;2023-08-08T07:28:18;7.53;;;3.08;;
45522;SDS011;31254;51.680;5.394;2023-08-08T07:30:47;11.05;;;3.25;;
45522;SDS011;31254;51.680;5.394;2023-08-08T07:33:14;8.55;;;3.08;;
45522;SDS011;31254;51.680;5.394;2023-08-08T07:35:41;9.65;;;3.20;;
45522;SDS011;31254;51.680;5.394;2023-08-08T07:38:07;9.60;;;2.83;;
45522;SDS011;31254;51.680;5.394;2023-08-08T07:40:34;9.55;;;2.22;;
45522;SDS011;31254;51.680;5.394;2023-08-08T07:43:02;6.97;;;2.17;;
45522;SDS011;31254;51.680;5.394;2023-08-08T07:45:29;4.90;;;1.77;;
45522;SDS011;31254;51.680;5.394;2023-08-08T07:47:56;9.70;;;2.10;;
45522;SDS011;31254;51.680;5.394;2023-08-08T07:50:23;6.97;;;2.00;;
45522;SDS011;31254;51.680;5.394;2023-08-08T07:52:52;8.10;;;1.95;;
45522;SDS011;31254;51.680;5.394;2023-08-08T07:55:18;7.28;;;1.98;;
45522;SDS011;31254;51.680;5.394;2023-08-08T07:57:48;4.20;;;1.50;;
45522;SDS011;31254;51.680;5.394;2023-08-08T08:00:14;5.57;;;2.00;;
45522;SDS011;31254;51.680;5.394;2023-08-08T08:02:45;6.28;;;2.15;;
45522;SDS011;31254;51.680;5.394;2023-08-08T08:05:14;4.68;;;1.85;;
45522;SDS011;31254;51.680;5.394;2023-08-08T08:07:41;5.10;;;1.73;;
45522;SDS011;31254;51.680;5.394;2023-08-08T08:10:09;6.60;;;1.58;;
45522;SDS011;31254;51.680;5.394;2023-08-08T08:12:39;5.57;;;1.98;;
45522;SDS011;31254;51.680;5.394;2023-08-08T08:15:09;7.53;;;2.08;;
45522;SDS011;31254;51.680;5.394;2023-08-08T08:17:36;6.35;;;1.58;;
45522;SDS011;31254;51.680;5.394;2023-08-08T08:20:03;9.40;;;2.15;;
45522;SDS011;31254;51.680;5.394;2023-08-08T08:22:37;4.57;;;1.73;;
45522;SDS011;31254;51.680;5.394;2023-08-08T08:25:05;5.32;;;1.42;;
45522;SDS011;31254;51.680;5.394;2023-08-08T08:27:35;5.88;;;1.50;;
45522;SDS011;31254;51.680;5.394;2023-08-08T08:30:06;6.35;;;1.50;;
45522;SDS011;31254;51.680;5.394;2023-08-08T08:32:37;6.93;;;1.60;;
45522;SDS011;31254;51.680;5.394;2023-08-08T08:35:08;6.22;;;1.92;;
45522;SDS011;31254;51.680;5.394;2023-08-08T08:37:35;6.53;;;1.67;;
45522;SDS011;31254;51.680;5.394;2023-08-08T08:40:02;5.03;;;1.35;;
45522;SDS011;31254;51.680;5.394;2023-08-08T08:42:34;3.30;;;1.00;;
45522;SDS011;31254;51.680;5.394;2023-08-08T08:45:01;7.72;;;1.30;;
45522;SDS011;31254;51.680;5.394;2023-08-08T08:47:29;3.60;;;0.98;;
45522;SDS011;31254;51.680;5.394;2023-08-08T08:50:00;3.45;;;1.00;;
45522;SDS011;31254;51.680;5.394;2023-08-08T08:52:30;3.17;;;0.88;;
45522;SDS011;31254;51.680;5.394;2023-08-08T08:54:56;3.13;;;0.88;;
45522;SDS011;31254;51.680;5.394;2023-08-08T08:57:24;2.90;;;1.05;;
45522;SDS011;31254;51.680;5.394;2023-08-08T08:59:51;2.45;;;0.98;;
45522;SDS011;31254;51.680;5.394;2023-08-08T09:02:18;2.80;;;1.02;;
45522;SDS011;31254;51.680;5.394;2023-08-08T09:04:45;3.05;;;0.90;;
45522;SDS011;31254;51.680;5.394;2023-08-08T09:07:15;3.90;;;1.35;;
45522;SDS011;31254;51.680;5.394;2023-08-08T09:09:49;5.32;;;1.20;;
45522;SDS011;31254;51.680;5.394;2023-08-08T09:12:16;4.20;;;1.10;;
45522;SDS011;31254;51.680;5.394;2023-08-08T09:14:45;5.28;;;1.15;;
45522;SDS011;31254;51.680;5.394;2023-08-08T09:17:11;4.53;;;0.82;;
45522;SDS011;31254;51.680;5.394;2023-08-08T09:19:45;4.20;;;1.15;;
45522;SDS011;31254;51.680;5.394;2023-08-08T09:22:14;2.17;;;0.88;;
45522;SDS011;31254;51.680;5.394;2023-08-08T09:24:41;3.85;;;1.30;;
45522;SDS011;31254;51.680;5.394;2023-08-08T09:27:08;4.70;;;1.00;;
45522;SDS011;31254;51.680;5.394;2023-08-08T09:29:37;2.42;;;0.90;;
45522;SDS011;31254;51.680;5.394;2023-08-08T09:32:05;4.85;;;1.30;;
45522;SDS011;31254;51.680;5.394;2023-08-08T09:34:34;4.80;;;1.83;;
45522;SDS011;31254;51.680;5.394;2023-08-08T09:37:03;3.22;;;1.33;;
45522;SDS011;31254;51.680;5.394;2023-08-08T09:39:34;3.60;;;0.90;;
45522;SDS011;31254;51.680;5.394;2023-08-08T09:42:07;3.92;;;1.63;;
45522;SDS011;31254;51.680;5.394;2023-08-08T09:44:37;8.23;;;1.52;;
45522;SDS011;31254;51.680;5.394;2023-08-08T09:47:04;4.65;;;1.50;;
45522;SDS011;31254;51.680;5.394;2023-08-08T09:49:30;3.47;;;1.33;;
45522;SDS011;31254;51.680;5.394;2023-08-08T09:52:02;3.15;;;1.30;;
45522;SDS011;31254;51.680;5.394;2023-08-08T09:54:30;7.55;;;1.73;;
45522;SDS011;31254;51.680;5.394;2023-08-08T09:56:58;5.25;;;1.45;;
45522;SDS011;31254;51.680;5.394;2023-08-08T09:59:31;2.72;;;1.20;;
45522;SDS011;31254;51.680;5.394;2023-08-08T10:01:58;3.65;;;1.15;;
45522;SDS011;31254;51.680;5.394;2023-08-08T10:04:30;3.13;;;1.20;;
45522;SDS011;31254;51.680;5.394;2023-08-08T10:06:57;5.63;;;1.52;;
45522;SDS011;31254;51.680;5.394;2023-08-08T10:09:26;4.38;;;1.60;;
45522;SDS011;31254;51.680;5.394;2023-08-08T10:11:54;2.80;;;1.15;;
45522;SDS011;31254;51.680;5.394;2023-08-08T10:14:27;5.07;;;1.42;;
45522;SDS011;31254;51.680;5.394;2023-08-08T10:16:55;4.57;;;1.20;;
45522;SDS011;31254;51.680;5.394;2023-08-08T10:19:23;3.42;;;1.08;;
45522;SDS011;31254;51.680;5.394;2023-08-08T10:22:03;2.20;;;0.90;;
45522;SDS011;31254;51.680;5.394;2023-08-08T10:24:34;4.40;;;1.23;;
45522;SDS011;31254;51.680;5.394;2023-08-08T10:27:02;4.10;;;0.93;;
45522;SDS011;31254;51.680;5.394;2023-08-08T10:29:33;3.03;;;1.15;;
45522;SDS011;31254;51.680;5.394;2023-08-08T10:32:01;5.40;;;1.35;;
45522;SDS011;31254;51.680;5.394;2023-08-08T10:34:37;4.13;;;1.27;;
45522;SDS011;31254;51.680;5.394;2023-08-08T10:37:11;2.53;;;0.90;;
45522;SDS011;31254;51.680;5.394;2023-08-08T10:42:23;3.67;;;1.35;;
45522;SDS011;31254;51.680;5.394;2023-08-08T10:44:54;1.98;;;1.13;;
45522;SDS011;31254;51.680;5.394;2023-08-08T10:47:25;4.97;;;1.35;;
45522;SDS011;31254;51.680;5.394;2023-08-08T10:50:02;3.40;;;1.30;;
45522;SDS011;31254;51.680;5.394;2023-08-08T10:55:25;2.90;;;1.10;;
45522;SDS011;31254;51.680;5.394;2023-08-08T10:57:53;6.00;;;1.35;;
45522;SDS011;31254;51.680;5.394;2023-08-08T11:00:33;4.28;;;1.13;;
45522;SDS011;31254;51.680;5.394;2023-08-08T11:03:02;2.40;;;0.93;;
45522;SDS011;31254;51.680;5.394;2023-08-08T11:05:33;2.72;;;0.80;;
45522;SDS011;31254;51.680;5.394;2023-08-08T11:08:02;2.20;;;0.60;;
45522;SDS011;31254;51.680;5.394;2023-08-08T11:10:34;3.53;;;1.58;;
45522;SDS011;31254;51.680;5.394;2023-08-08T11:13:02;5.28;;;0.98;;
45522;SDS011;31254;51.680;5.394;2023-08-08T11:15:31;3.45;;;1.17;;
45522;SDS011;31254;51.680;5.394;2023-08-08T11:18:01;6.63;;;1.30;;
45522;SDS011;31254;51.680;5.394;2023-08-08T11:20:32;5.13;;;1.20;;
45522;SDS011;31254;51.680;5.394;2023-08-08T11:22:59;2.65;;;1.10;;
45522;SDS011;31254;51.680;5.394;2023-08-08T11:25:27;4.97;;;1.13;;
45522;SDS011;31254;51.680;5.394;2023-08-08T11:27:56;2.88;;;1.10;;
45522;SDS011;31254;51.680;5.394;2023-08-08T11:30:24;3.20;;;1.38;;
45522;SDS011;31254;51.680;5.394;2023-08-08T11:32:57;3.15;;;1.20;;
45522;SDS011;31254;51.680;5.394;2023-08-08T11:35:29;2.92;;;1.08;;
45522;SDS011;31254;51.680;5.394;2023-08-08T11:37:56;2.22;;;1.10;;
45522;SDS011;31254;51.680;5.394;2023-08-08T11:40:27;3.08;;;1.00;;
45522;SDS011;31254;51.680;5.394;2023-08-08T11:42:56;3.13;;;0.82;;
45522;SDS011;31254;51.680;5.394;2023-08-08T11:45:23;3.38;;;1.00;;
45522;SDS011;31254;51.680;5.394;2023-08-08T11:47:53;2.05;;;1.00;;
45522;SDS011;31254;51.680;5.394;2023-08-08T11:50:21;4.70;;;0.98;;
45522;SDS011;31254;51.680;5.394;2023-08-08T11:52:53;2.67;;;0.70;;
45522;SDS011;31254;51.680;5.394;2023-08-08T11:55:20;1.65;;;0.90;;
45522;SDS011;31254;51.680;5.394;2023-08-08T11:57:55;2.78;;;0.80;;
45522;SDS011;31254;51.680;5.394;2023-08-08T12:00:27;3.22;;;0.80;;
45522;SDS011;31254;51.680;5.394;2023-08-08T12:03:00;2.50;;;0.70;;
45522;SDS011;31254;51.680;5.394;2023-08-08T12:05:31;3.13;;;0.80;;
45522;SDS011;31254;51.680;5.394;2023-08-08T12:08:04;3.80;;;0.70;;
45522;SDS011;31254;51.680;5.394;2023-08-08T12:10:32;2.53;;;0.70;;
45522;SDS011;31254;51.680;5.394;2023-08-08T12:13:03;1.90;;;0.80;;
45522;SDS011;31254;51.680;5.394;2023-08-08T12:15:34;4.45;;;1.00;;
45522;SDS011;31254;51.680;5.394;2023-08-08T12:18:02;2.47;;;0.60;;
45522;SDS011;31254;51.680;5.394;2023-08-08T12:20:32;3.83;;;0.77;;
45522;SDS011;31254;51.680;5.394;2023-08-08T12:22:59;2.42;;;0.57;;
45522;SDS011;31254;51.680;5.394;2023-08-08T12:25:26;1.30;;;0.45;;
45522;SDS011;31254;51.680;5.394;2023-08-08T12:27:53;2.13;;;0.52;;
45522;SDS011;31254;51.680;5.394;2023-08-08T12:30:20;1.30;;;0.50;;
45522;SDS011;31254;51.680;5.394;2023-08-08T12:32:47;1.63;;;0.82;;
45522;SDS011;31254;51.680;5.394;2023-08-08T12:35:16;2.22;;;0.65;;
45522;SDS011;31254;51.680;5.394;2023-08-08T12:37:43;3.13;;;0.55;;
45522;SDS011;31254;51.680;5.394;2023-08-08T12:40:10;1.02;;;0.60;;
45522;SDS011;31254;51.680;5.394;2023-08-08T12:42:37;1.80;;;0.73;;
45522;SDS011;31254;51.680;5.394;2023-08-08T12:45:04;3.25;;;0.55;;
45522;SDS011;31254;51.680;5.394;2023-08-08T12:47:36;2.10;;;0.60;;
45522;SDS011;31254;51.680;5.394;2023-08-08T12:50:04;4.22;;;0.80;;
45522;SDS011;31254;51.680;5.394;2023-08-08T12:52:31;1.27;;;0.50;;
45522;SDS011;31254;51.680;5.394;2023-08-08T12:54:58;3.30;;;0.80;;
45522;SDS011;31254;51.680;5.394;2023-08-08T12:57:31;1.58;;;0.50;;
45522;SDS011;31254;51.680;5.394;2023-08-08T12:59:59;2.72;;;0.50;;
45522;SDS011;31254;51.680;5.394;2023-08-08T13:02:25;1.10;;;0.60;;
45522;SDS011;31254;51.680;5.394;2023-08-08T13:04:55;6.07;;;0.55;;
45522;SDS011;31254;51.680;5.394;2023-08-08T13:07:24;1.63;;;0.65;;
45522;SDS011;31254;51.680;5.394;2023-08-08T13:09:54;2.03;;;0.68;;
45522;SDS011;31254;51.680;5.394;2023-08-08T13:12:23;2.38;;;0.50;;
45522;SDS011;31254;51.680;5.394;2023-08-08T13:14:50;1.92;;;0.50;;
45522;SDS011;31254;51.680;5.394;2023-08-08T13:17:17;2.17;;;0.50;;
45522;SDS011;31254;51.680;5.394;2023-08-08T13:19:43;1.05;;;0.50;;
45522;SDS011;31254;51.680;5.394;2023-08-08T13:22:14;1.17;;;0.40;;
45522;SDS011;31254;51.680;5.394;2023-08-08T13:24:43;1.40;;;0.47;;
45522;SDS011;31254;51.680;5.394;2023-08-08T13:27:09;4.22;;;0.70;;
45522;SDS011;31254;51.680;5.394;2023-08-08T13:29:39;1.33;;;0.60;;
45522;SDS011;31254;51.680;5.394;2023-08-08T13:32:06;2.25;;;0.60;;
45522;SDS011;31254;51.680;5.394;2023-08-08T13:34:35;1.13;;;0.63;;
45522;SDS011;31254;51.680;5.394;2023-08-08T13:37:02;1.02;;;0.50;;
45522;SDS011;31254;51.680;5.394;2023-08-08T13:39:29;1.92;;;0.40;;
45522;SDS011;31254;51.680;5.394;2023-08-08T13:42:01;2.92;;;0.60;;
45522;SDS011;31254;51.680;5.394;2023-08-08T13:44:30;1.88;;;0.63;;
45522;SDS011;31254;51.680;5.394;2023-08-08T13:46:59;3.58;;;0.60;;
45522;SDS011;31254;51.680;5.394;2023-08-08T13:49:25;1.38;;;0.70;;
45522;SDS011;31254;51.680;5.394;2023-08-08T13:51:55;1.52;;;0.60;;
45522;SDS011;31254;51.680;5.394;2023-08-08T13:54:22;1.98;;;0.60;;
45522;SDS011;31254;51.680;5.394;2023-08-08T13:56:51;0.60;;;0.40;;
45522;SDS011;31254;51.680;5.394;2023-08-08T13:59:18;1.60;;;0.55;;
45522;SDS011;31254;51.680;5.394;2023-08-08T14:01:47;3.33;;;0.90;;
45522;SDS011;31254;51.680;5.394;2023-08-08T14:04:13;4.53;;;1.15;;
45522;SDS011;31254;51.680;5.394;2023-08-08T14:06:40;3.80;;;0.80;;
45522;SDS011;31254;51.680;5.394;2023-08-08T14:09:07;2.58;;;0.70;;
45522;SDS011;31254;51.680;5.394;2023-08-08T14:11:36;3.42;;;0.70;;
45522;SDS011;31254;51.680;5.394;2023-08-08T14:14:05;3.55;;;0.80;;
45522;SDS011;31254;51.680;5.394;2023-08-08T14:16:32;1.80;;;0.90;;
45522;SDS011;31254;51.680;5.394;2023-08-08T14:18:59;2.58;;;0.80;;
45522;SDS011;31254;51.680;5.394;2023-08-08T14:21:25;1.00;;;0.73;;
45522;SDS011;31254;51.680;5.394;2023-08-08T14:23:52;2.97;;;0.60;;
45522;SDS011;31254;51.680;5.394;2023-08-08T14:26:19;1.83;;;0.73;;
45522;SDS011;31254;51.680;5.394;2023-08-08T14:28:45;2.22;;;0.60;;
45522;SDS011;31254;51.680;5.394;2023-08-08T14:31:12;2.08;;;0.77;;
45522;SDS011;31254;51.680;5.394;2023-08-08T14:33:41;2.55;;;0.80;;
45522;SDS011;31254;51.680;5.394;2023-08-08T14:36:08;3.78;;;0.90;;
45522;SDS011;31254;51.680;5.394;2023-08-08T14:38:35;3.90;;;0.85;;
45522;SDS011;31254;51.680;5.394;2023-08-08T14:41:07;2.92;;;0.75;;
45522;SDS011;31254;51.680;5.394;2023-08-08T14:43:34;2.78;;;1.10;;
45522;SDS011;31254;51.680;5.394;2023-08-08T14:46:01;3.60;;;1.65;;
45522;SDS011;31254;51.680;5.394;2023-08-08T14:48:28;5.55;;;1.70;;
45522;SDS011;31254;51.680;5.394;2023-08-08T14:50:54;2.28;;;0.90;;
45522;SDS011;31254;51.680;5.394;2023-08-08T14:53:21;4.40;;;0.95;;
45522;SDS011;31254;51.680;5.394;2023-08-08T14:55:48;4.53;;;1.10;;
45522;SDS011;31254;51.680;5.394;2023-08-08T14:58:14;2.30;;;0.93;;
45522;SDS011;31254;51.680;5.394;2023-08-08T15:00:43;1.75;;;0.82;;
45522;SDS011;31254;51.680;5.394;2023-08-08T15:03:14;1.88;;;1.08;;